Terminal Aerodrome Forecast
Issued by NWS Twin Cities, MN

Home | Current Version | Previous Version | Text Only | Print | Product List | Glossary Off
Versions: 1 2 3 4 5 6 7 8 9 10 11 12 13 14 15 16 17

000
FTUS43 KMPX 311416 AAA
TAFEAU
TAF AMD
KEAU 311416Z 3114/0112 00000KT 1/4SM FG VV002
     FM311530 VRB03KT 5SM BR BKN009
     FM311730 29013G18KT P6SM SKC
     FM312300 30005KT P6SM SCT090
     FM010500 08009KT P6SM BKN250=

USA.gov is the U.S. government's official web portal to all federal, state and local government web resources and services.